Time;durP1;ratioP1;P1;durP2;ratioP2;P2;SDS_P1;SDS_P2;PMS_P1;PMS_P2;Temp;Humidity;BMP_temperature;BMP_pressure;BME280_temperature;BME280_humidity;BME280_pressure;Samples;Min_cycle;Max_cycle;Signal;HPM_P1;HPM_P2
2022/12/15 00:38:46;;;;;;;58.80;33.60;;;;;;;-1.02;88.43;97471.18;86294;1300;24172;-79
2022/12/15 00:40:50;;;;;;;50.80;32.50;;;;;;;-1.02;88.42;97477.90;86032;1291;100036;-77
2022/12/15 00:42:51;;;;;;;61.50;33.10;;;;;;;-1.01;88.42;97476.00;86103;1297;24284;-78
2022/12/15 00:44:55;;;;;;;69.00;37.20;;;;;;;-1.00;88.42;97479.06;86324;1290;22491;-79
2022/12/15 00:46:57;;;;;;;61.00;36.40;;;;;;;-1.00;88.38;97477.00;86257;1297;98400;-78
2022/12/15 00:48:59;;;;;;;72.60;41.50;;;;;;;-1.00;88.44;97478.90;86094;1291;22626;-78
2022/12/15 00:51:01;;;;;;;78.10;42.90;;;;;;;-1.01;88.41;97478.91;86186;1289;25791;-79
2022/12/15 01:21:11;;;;;;;71.90;40.50;;;;;;;-1.04;88.46;97508.81;86222;1291;22582;-77
2022/12/15 01:23:12;;;;;;;72.40;41.10;;;;;;;-1.00;88.38;97517.33;86101;1291;99389;-79
2022/12/15 01:25:16;;;;;;;61.90;35.60;;;;;;;-1.00;88.41;97520.09;86047;1289;24271;-79
2022/12/15 01:27:19;;;;;;;69.10;41.90;;;;;;;-0.99;88.42;97523.16;86148;1284;25117;-78
2022/12/15 01:29:21;;;;;;;79.00;42.00;;;;;;;-0.99;88.21;97523.52;86041;1289;99936;-77
2022/12/15 01:31:24;;;;;;;59.10;35.10;;;;;;;-0.99;88.31;97526.42;86034;1315;22447;-78
2022/12/15 01:33:26;;;;;;;58.50;33.70;;;;;;;-0.99;88.36;97522.48;86249;1290;98843;-79
2022/12/15 01:35:28;;;;;;;68.20;40.80;;;;;;;-0.99;88.36;97525.91;85974;1289;22508;-78
2022/12/15 01:37:30;;;;;;;67.90;40.20;;;;;;;-0.99;88.41;97527.31;86137;1291;23019;-78
2022/12/15 01:41:56;;;;;;;68.80;40.70;;;;;;;-0.99;88.45;97527.46;85897;1297;22549;-76
2022/12/15 01:44:18;;;;;;;62.10;36.80;;;;;;;-0.99;88.50;97523.35;86109;1305;22494;-75
2022/12/15 01:46:22;;;;;;;62.90;35.10;;;;;;;-0.99;88.39;97521.95;86216;1300;99210;-78
2022/12/15 01:48:49;;;;;;;61.20;37.30;;;;;;;-0.98;88.42;97523.67;86677;1297;23255;-77
2022/12/15 01:51:11;;;;;;;60.60;34.70;;;;;;;-0.98;88.51;97522.97;85768;1319;23221;-78
2022/12/15 01:53:14;;;;;;;62.70;35.00;;;;;;;-0.97;88.39;97525.55;85972;1318;99406;-78
2022/12/15 01:55:18;;;;;;;63.90;35.20;;;;;;;-0.98;88.38;97523.83;86055;1320;24317;-76
2022/12/15 01:57:25;;;;;;;64.90;37.80;;;;;;;-0.98;88.40;97532.27;86320;1296;22606;-77
2022/12/15 01:59:39;;;;;;;69.00;37.70;;;;;;;-0.98;88.25;97532.80;87174;1321;22462;-78
2022/12/15 02:01:42;;;;;;;65.10;36.70;;;;;;;-0.99;88.28;97534.21;85795;1296;22537;-77
2022/12/15 02:03:46;;;;;;;80.10;40.10;;;;;;;-1.01;88.24;97535.30;85563;1311;99522;-78
2022/12/15 02:05:48;;;;;;;66.10;34.00;;;;;;;-1.03;88.26;97534.80;85760;1295;24230;-78
2022/12/15 02:07:49;;;;;;;67.90;37.90;;;;;;;-1.03;88.24;97540.85;85739;1296;22598;-78
2022/12/15 02:09:55;;;;;;;64.50;39.70;;;;;;;-1.04;88.20;97542.59;85724;1315;99221;-77
2022/12/15 02:12:01;;;;;;;62.80;36.10;;;;;;;-1.04;88.28;97548.80;85847;1303;25555;-78
2022/12/15 02:14:06;;;;;;;76.00;41.80;;;;;;;-1.06;88.15;97549.70;85569;1304;204470;-79
2022/12/15 02:16:44;;;;;;;67.90;40.60;;;;;;;-1.05;88.09;97555.38;85789;1303;99843;-78
2022/12/15 02:18:58;;;;;;;57.40;34.10;;;;;;;-1.07;88.17;97555.77;85670;1319;25373;-79
2022/12/15 02:21:18;;;;;;;62.00;34.40;;;;;;;-1.08;88.13;97559.76;85701;1300;23057;-78
2022/12/15 02:23:32;;;;;;;72.90;39.50;;;;;;;-1.07;88.10;97563.69;85646;1303;99277;-78
2022/12/15 02:26:09;;;;;;;68.70;38.10;;;;;;;-1.08;88.09;97563.02;85859;1295;25551;-79
2022/12/15 02:28:17;;;;;;;67.40;39.10;;;;;;;-1.10;88.03;97566.87;85915;1309;99632;-78
2022/12/15 02:30:26;;;;;;;72.70;39.20;;;;;;;-1.12;88.14;97567.95;86308;1287;24293;-78
2022/12/15 02:32:42;;;;;;;69.90;38.70;;;;;;;-1.13;88.04;97572.27;86174;1313;22539;-78
2022/12/15 02:34:52;;;;;;;69.50;38.10;;;;;;;-1.14;87.92;97578.02;85876;1304;100298;-78
2022/12/15 02:37:00;;;;;;;73.00;39.60;;;;;;;-1.16;87.98;97585.98;86264;1291;22471;-78
2022/12/15 02:39:03;;;;;;;72.70;41.30;;;;;;;-1.16;87.91;97587.02;86208;1296;22478;-78
2022/12/15 02:41:32;;;;;;;73.40;41.40;;;;;;;-1.17;87.96;97590.33;86007;1315;99651;-79
2022/12/15 02:43:37;;;;;;;73.80;42.40;;;;;;;-1.19;87.90;97592.09;86118;1296;22540;-78
2022/12/15 02:46:10;;;;;;;67.90;39.40;;;;;;;-1.21;87.88;97593.83;86043;1290;99666;-78
2022/12/15 02:48:35;;;;;;;72.80;41.90;;;;;;;-1.20;87.98;97591.77;86122;1283;26496;-78
2022/12/15 02:50:50;;;;;;;68.40;38.90;;;;;;;-1.22;87.94;97595.08;86183;1292;23311;-79
2022/12/15 02:53:15;;;;;;;71.90;40.40;;;;;;;-1.23;87.90;97599.40;86150;1297;99423;-78
2022/12/15 02:55:36;;;;;;;73.10;40.00;;;;;;;-1.22;87.95;97602.49;86149;1286;23590;-78
2022/12/15 02:57:58;;;;;;;72.20;41.20;;;;;;;-1.21;88.01;97606.77;86011;1310;100371;-79
2022/12/15 03:00:04;;;;;;;72.20;41.70;;;;;;;-1.19;88.06;97601.23;86295;1296;22532;-77
2022/12/15 03:02:09;;;;;;;77.90;44.20;;;;;;;-1.17;88.15;97606.50;86190;1286;22937;-78
2022/12/15 03:04:12;;;;;;;85.00;47.70;;;;;;;-1.15;88.10;97607.67;85957;1290;99224;-77
2022/12/15 03:06:15;;;;;;;63.70;39.90;;;;;;;-1.13;88.16;97602.48;86251;1287;22627;-79
2022/12/15 03:08:19;;;;;;;90.40;50.00;;;;;;;-1.12;88.14;97601.76;86086;1296;22602;-78
2022/12/15 03:10:24;;;;;;;77.60;44.20;;;;;;;-1.10;88.17;97604.11;86189;1297;98752;-79
2022/12/15 03:12:26;;;;;;;77.90;44.30;;;;;;;-1.09;88.28;97604.10;86259;1302;25565;-79
2022/12/15 03:14:28;;;;;;;97.70;51.00;;;;;;;-1.08;88.12;97600.96;85929;1289;22565;-78
2022/12/15 03:16:30;;;;;;;92.10;51.70;;;;;;;-1.07;88.24;97601.63;86028;1289;99656;-80
2022/12/15 03:18:32;;;;;;;89.80;49.00;;;;;;;-1.06;88.20;97598.85;85993;1315;25589;-79
2022/12/15 03:20:34;;;;;;;109.80;60.30;;;;;;;-1.06;88.34;97602.98;85934;1312;24658;-78
2022/12/15 03:22:36;;;;;;;103.10;54.30;;;;;;;-1.07;88.24;97606.11;86040;1311;99544;-78
2022/12/15 03:24:38;;;;;;;99.90;54.30;;;;;;;-1.07;88.19;97607.14;86092;1313;24434;-78
2022/12/15 03:26:40;;;;;;;109.70;58.80;;;;;;;-1.07;88.22;97607.98;86080;1305;22539;-79
2022/12/15 03:28:41;;;;;;;105.00;57.50;;;;;;;-1.06;88.16;97608.84;85958;1314;99409;-79
2022/12/15 03:30:44;;;;;;;110.70;63.10;;;;;;;-1.10;88.24;97605.65;86102;1289;24402;-80
2022/12/15 03:32:46;;;;;;;107.80;60.50;;;;;;;-1.10;88.17;97610.84;86004;1312;24408;-78
2022/12/15 03:34:47;;;;;;;116.30;61.00;;;;;;;-1.10;88.05;97613.42;86003;1313;99455;-79
2022/12/15 03:36:49;;;;;;;120.30;65.90;;;;;;;-1.09;88.17;97618.58;86136;1286;24237;-78
2022/12/15 03:38:51;;;;;;;124.10;66.70;;;;;;;-1.09;88.17;97619.10;86135;1296;22539;-78
2022/12/15 03:40:54;;;;;;;105.40;59.40;;;;;;;-1.10;88.12;97626.70;86151;1298;99836;-78
2022/12/15 03:42:56;;;;;;;129.50;70.20;;;;;;;-1.15;88.08;97628.17;86014;1305;22978;-78
2022/12/15 03:44:58;;;;;;;122.30;70.70;;;;;;;-1.14;88.09;97636.79;86175;1294;22507;-78
2022/12/15 03:47:01;;;;;;;112.50;64.90;;;;;;;-1.17;87.97;97640.14;86073;1292;99588;-79
2022/12/15 03:49:03;;;;;;;132.90;72.80;;;;;;;-1.20;87.99;97642.77;86428;1312;25443;-77
2022/12/15 03:51:04;;;;;;;137.40;72.20;;;;;;;-1.20;87.92;97646.73;86073;1289;23405;-78
2022/12/15 03:53:06;;;;;;;126.40;69.60;;;;;;;-1.21;87.93;97649.69;86222;1289;98385;-78
2022/12/15 03:55:09;;;;;;;131.50;72.70;;;;;;;-1.21;87.98;97650.38;86325;1289;22554;-79
2022/12/15 03:57:11;;;;;;;141.60;72.70;;;;;;;-1.20;87.97;97652.94;86215;1299;22514;-78
2022/12/15 03:59:14;;;;;;;131.70;70.60;;;;;;;-1.19;87.95;97652.75;86113;1291;98285;-78
2022/12/15 04:01:19;;;;;;;134.10;70.70;;;;;;;-1.19;87.99;97654.98;86156;1296;22472;-79
2022/12/15 04:03:21;;;;;;;131.50;73.00;;;;;;;-1.18;88.02;97657.55;86399;1294;22423;-78
2022/12/15 04:05:26;;;;;;;139.60;73.90;;;;;;;-1.18;88.05;97659.63;86059;1297;98301;-77
2022/12/15 04:07:28;;;;;;;123.70;68.00;;;;;;;-1.19;88.07;97659.80;86175;1289;25905;-78
2022/12/15 04:09:29;;;;;;;145.60;79.10;;;;;;;-1.18;87.96;97663.95;86051;1294;99538;-78
2022/12/15 04:11:31;;;;;;;123.00;69.80;;;;;;;-1.18;88.02;97663.92;86239;1313;25246;-79
2022/12/15 04:13:33;;;;;;;122.60;67.20;;;;;;;-1.17;88.12;97666.67;86053;1314;22501;-79
2022/12/15 04:15:36;;;;;;;127.00;69.70;;;;;;;-1.16;88.15;97669.05;86009;1289;99669;-78
2022/12/15 04:17:38;;;;;;;144.30;77.50;;;;;;;-1.16;88.01;97664.91;86001;1304;25199;-80
2022/12/15 04:22:02;;;;;;;134.80;69.70;;;;;;;-1.14;88.17;97672.64;86094;1307;99518;-79
2022/12/15 05:32:18;;;;;;;163.00;86.20;;;;;;;-1.07;88.26;97751.07;85966;1291;22509;-78
2022/12/15 05:34:32;;;;;;;161.40;91.10;;;;;;;-1.06;88.34;97754.85;85994;1283;99430;-78
2022/12/15 05:36:34;;;;;;;150.90;84.20;;;;;;;-1.06;88.28;97754.50;86232;1294;23274;-78
2022/12/15 05:38:36;;;;;;;168.30;90.50;;;;;;;-1.05;88.16;97764.84;86159;1313;22463;-78
2022/12/15 05:40:37;;;;;;;174.00;95.10;;;;;;;-1.04;88.30;97770.15;86079;1294;98662;-79
2022/12/15 05:42:39;;;;;;;157.30;87.90;;;;;;;-1.03;88.36;97775.64;85945;1293;22632;-79
2022/12/15 05:44:41;;;;;;;170.50;93.00;;;;;;;-1.01;88.25;97783.02;86207;1288;23833;-79
2022/12/15 05:46:43;;;;;;;158.50;88.70;;;;;;;-1.03;88.40;97783.23;85945;1289;98528;-78
2022/12/15 05:48:45;;;;;;;169.90;91.10;;;;;;;-1.03;88.21;97789.44;86070;1291;22848;-78
2022/12/15 05:50:46;;;;;;;175.10;94.30;;;;;;;-1.04;88.16;97785.50;85900;1300;25773;-77
2022/12/15 05:52:48;;;;;;;173.00;93.70;;;;;;;-1.08;88.10;97785.75;85884;1290;100119;-78
2022/12/15 05:54:50;;;;;;;176.40;92.80;;;;;;;-1.11;88.10;97785.98;85968;1294;24164;-78
2022/12/15 05:56:52;;;;;;;163.10;88.80;;;;;;;-1.13;88.18;97788.45;85990;1290;27907;-78
2022/12/15 05:58:57;;;;;;;155.20;83.50;;;;;;;-1.12;88.09;97797.39;85789;1300;99814;-77
2022/12/15 06:01:06;;;;;;;178.00;92.30;;;;;;;-1.12;88.18;97803.92;85980;1289;25329;-78
2022/12/15 06:03:08;;;;;;;172.90;92.00;;;;;;;-1.12;88.20;97808.92;85945;1292;22509;-78
2022/12/15 06:05:09;;;;;;;166.00;94.50;;;;;;;-1.13;88.18;97817.22;85719;1289;99848;-79
2022/12/15 06:07:11;;;;;;;178.50;100.00;;;;;;;-1.12;88.08;97820.83;85992;1291;24180;-77
2022/12/15 06:09:13;;;;;;;185.80;96.90;;;;;;;-1.12;88.13;97818.92;85876;1300;23026;-77
2022/12/15 06:11:19;;;;;;;185.70;94.00;;;;;;;-1.14;88.04;97816.73;85951;1307;99381;-78
2022/12/15 06:13:22;;;;;;;178.20;88.80;;;;;;;-1.15;88.10;97814.85;85870;1286;22521;-78
2022/12/15 06:15:23;;;;;;;185.60;97.00;;;;;;;-1.15;88.09;97816.75;86022;1296;24153;-77
2022/12/15 06:17:25;;;;;;;174.80;91.60;;;;;;;-1.14;88.16;97822.76;85653;1315;99352;-77
2022/12/15 06:19:27;;;;;;;177.00;98.60;;;;;;;-1.12;88.02;97830.99;85899;1290;22523;-79
2022/12/15 06:21:31;;;;;;;188.70;93.20;;;;;;;-1.12;88.17;97832.53;85950;1291;23845;-77
2022/12/15 06:23:34;;;;;;;174.80;90.10;;;;;;;-1.12;87.98;97833.58;85921;1285;99595;-78
2022/12/15 06:25:36;;;;;;;177.60;91.90;;;;;;;-1.12;88.21;97840.13;85804;1308;25466;-77
2022/12/15 06:27:38;;;;;;;184.60;95.70;;;;;;;-1.13;88.20;97846.86;85840;1289;99663;-76
2022/12/15 06:29:39;;;;;;;172.80;92.90;;;;;;;-1.13;88.03;97853.77;85801;1290;24444;-75
2022/12/15 06:31:41;;;;;;;174.20;94.00;;;;;;;-1.16;88.08;97855.05;85984;1291;22562;-78
2022/12/15 06:33:43;;;;;;;188.30;96.30;;;;;;;-1.17;88.06;97869.37;86093;1291;100024;-77
2022/12/15 06:35:48;;;;;;;169.20;91.20;;;;;;;-1.17;88.12;97873.16;86228;1317;22782;-76
2022/12/15 06:37:51;;;;;;;192.30;97.40;;;;;;;-1.17;88.10;97882.48;86189;1300;22683;-76
2022/12/15 06:39:53;;;;;;;186.60;94.40;;;;;;;-1.18;88.09;97888.85;86267;1289;99989;-77
2022/12/15 06:41:57;;;;;;;182.70;94.90;;;;;;;-1.17;88.01;97897.81;86545;1289;23566;-77
2022/12/15 06:44:00;;;;;;;164.20;86.70;;;;;;;-1.18;88.22;97899.03;86343;1299;22482;-76
2022/12/15 06:46:03;;;;;;;193.20;98.20;;;;;;;-1.17;88.23;97895.56;86083;1299;99477;-77
2022/12/15 06:48:05;;;;;;;180.60;94.50;;;;;;;-1.16;88.23;97903.30;86130;1290;24274;-77
2022/12/15 06:50:07;;;;;;;194.30;103.30;;;;;;;-1.16;88.05;97903.64;86207;1294;24264;-76
2022/12/15 06:52:08;;;;;;;186.00;95.60;;;;;;;-1.16;88.11;97908.97;86006;1290;99136;-76
2022/12/15 06:54:10;;;;;;;185.60;99.30;;;;;;;-1.15;88.10;97906.55;86373;1291;24409;-76
2022/12/15 06:56:17;;;;;;;197.10;101.70;;;;;;;-1.14;88.15;97903.42;86164;1300;22635;-76
2022/12/15 06:58:19;;;;;;;179.40;91.20;;;;;;;-1.13;88.13;97909.45;86121;1314;98634;-75
2022/12/15 07:00:22;;;;;;;183.80;99.60;;;;;;;-1.12;88.25;97917.52;86166;1299;22511;-75
2022/12/15 07:02:24;;;;;;;192.20;96.20;;;;;;;-1.10;88.20;97919.57;86219;1300;22632;-77
2022/12/15 07:04:26;;;;;;;189.90;104.10;;;;;;;-1.10;88.25;97917.67;86023;1291;99120;-76
2022/12/15 07:06:33;;;;;;;169.50;93.50;;;;;;;-1.10;88.19;97918.02;86460;1302;24286;-76
2022/12/15 07:08:35;;;;;;;184.10;100.70;;;;;;;-1.10;88.21;97919.04;86349;1314;26461;-76
2022/12/15 07:10:42;;;;;;;164.10;92.50;;;;;;;-1.10;88.13;97925.23;86370;1284;99539;-76
2022/12/15 07:12:43;;;;;;;179.00;94.50;;;;;;;-1.09;88.27;97927.13;85952;1291;22602;-77
2022/12/15 07:14:45;;;;;;;196.70;98.20;;;;;;;-1.08;88.25;97924.88;86649;1297;26597;-77
2022/12/15 07:16:47;;;;;;;189.80;99.10;;;;;;;-1.07;88.35;97935.73;86302;1317;98330;-76
2022/12/15 07:18:48;;;;;;;184.70;101.30;;;;;;;-1.07;88.23;97938.65;86640;1300;22512;-77
2022/12/15 07:20:51;;;;;;;183.60;94.90;;;;;;;-1.07;88.20;97938.11;86810;1313;26847;-76
2022/12/15 07:22:52;;;;;;;179.50;92.80;;;;;;;-1.06;88.18;97947.92;86601;1290;98942;-76
2022/12/15 07:24:54;;;;;;;184.40;99.20;;;;;;;-1.04;88.34;97944.28;86622;1315;22633;-76
2022/12/15 07:26:56;;;;;;;150.30;79.90;;;;;;;-1.02;88.18;97942.16;86590;1314;22538;-76
2022/12/15 07:28:58;;;;;;;167.60;86.50;;;;;;;-1.01;88.28;97946.47;86614;1314;98375;-77
2022/12/15 07:31:01;;;;;;;173.90;91.30;;;;;;;-1.00;88.23;97949.89;86600;1306;22504;-76
2022/12/15 07:33:04;;;;;;;166.00;88.50;;;;;;;-0.99;88.37;97958.48;86731;1283;22983;-76
2022/12/15 07:35:07;;;;;;;166.70;87.20;;;;;;;-0.97;88.24;97961.40;86523;1314;99684;-76
2022/12/15 07:37:09;;;;;;;165.40;89.40;;;;;;;-0.96;88.38;97967.57;86788;1309;22512;-76
2022/12/15 07:39:10;;;;;;;177.80;90.70;;;;;;;-0.95;88.24;97969.96;86637;1313;22612;-76
2022/12/15 07:41:13;;;;;;;158.70;82.50;;;;;;;-0.93;88.40;97975.80;86557;1306;99528;-75
2022/12/15 07:43:15;;;;;;;175.00;91.30;;;;;;;-0.92;88.27;97981.46;87105;1296;22790;-77
2022/12/15 07:45:17;;;;;;;168.80;87.50;;;;;;;-0.92;88.33;97982.15;87007;1292;22638;-76
2022/12/15 07:47:18;;;;;;;152.00;80.70;;;;;;;-0.92;88.28;97986.11;87223;1312;98204;-76
2022/12/15 07:49:21;;;;;;;165.30;80.90;;;;;;;-0.91;88.32;97985.42;87637;1314;22436;-76
2022/12/15 07:51:23;;;;;;;164.50;85.00;;;;;;;-0.90;88.40;97988.17;87617;1314;22483;-75
2022/12/15 07:53:26;;;;;;;157.20;85.50;;;;;;;-0.90;88.32;97998.33;86807;1297;98052;-76
2022/12/15 07:55:28;;;;;;;156.90;85.80;;;;;;;-0.91;88.37;98007.67;86861;1290;22827;-76
2022/12/15 07:57:31;;;;;;;160.00;82.20;;;;;;;-0.88;88.40;98015.71;86859;1291;22486;-76
2022/12/15 07:59:33;;;;;;;159.70;88.00;;;;;;;-0.88;88.26;98007.94;86598;1290;98114;-78
2022/12/15 08:01:35;;;;;;;161.90;88.70;;;;;;;-0.87;88.22;98017.08;86639;1313;26005;-75
2022/12/15 08:03:37;;;;;;;155.10;80.40;;;;;;;-0.87;88.29;98017.07;86624;1290;100520;-75
2022/12/15 08:05:39;;;;;;;150.30;76.10;;;;;;;-0.85;88.33;98028.78;86926;1305;25906;-74
2022/12/15 08:07:41;;;;;;;143.90;77.60;;;;;;;-0.84;88.30;98028.92;86861;1304;22528;-75
2022/12/15 08:09:47;;;;;;;143.10;74.80;;;;;;;-0.83;88.17;98026.85;86615;1287;99717;-75
2022/12/15 08:11:49;;;;;;;139.90;75.60;;;;;;;-0.82;88.22;98026.13;86464;1291;22620;-74
2022/12/15 08:13:51;;;;;;;141.20;79.50;;;;;;;-0.80;88.35;98041.27;86463;1295;22428;-74
2022/12/15 08:15:53;;;;;;;133.90;71.50;;;;;;;-0.79;88.38;98030.57;86568;1289;98474;-76
2022/12/15 08:17:55;;;;;;;149.80;77.00;;;;;;;-0.78;88.38;98042.27;86705;1313;22518;-76
2022/12/15 08:19:58;;;;;;;131.00;68.40;;;;;;;-0.77;88.40;98045.02;87432;1297;22509;-76
2022/12/15 08:22:00;;;;;;;115.40;61.20;;;;;;;-0.78;88.41;98049.17;87450;1313;98389;-74
2022/12/15 08:24:03;;;;;;;107.20;57.00;;;;;;;-0.74;88.27;98054.10;87384;1293;22049;-75
2022/12/15 08:26:11;;;;;;;113.70;56.50;;;;;;;-0.73;88.38;98059.95;87522;1305;22454;-75
2022/12/15 08:28:12;;;;;;;102.70;59.50;;;;;;;-0.73;88.43;98062.70;87360;1299;98266;-75
2022/12/15 08:30:17;;;;;;;107.90;59.40;;;;;;;-0.72;88.44;98065.27;87089;1308;22246;-77
2022/12/15 08:32:25;;;;;;;103.30;55.80;;;;;;;-0.74;88.47;98059.11;88069;1290;22377;-78
2022/12/15 08:34:27;;;;;;;93.90;53.70;;;;;;;-0.70;88.39;98070.06;86984;1291;98441;-79
2022/12/15 08:36:30;;;;;;;64.10;38.10;;;;;;;-0.70;88.38;98076.80;86976;1314;22499;-78
2022/12/15 08:38:34;;;;;;;90.10;49.70;;;;;;;-0.69;88.45;98085.94;87150;1297;23719;-77
2022/12/15 08:40:36;;;;;;;70.20;41.70;;;;;;;-0.69;88.41;98086.77;86879;1299;98275;-76
2022/12/15 08:42:38;;;;;;;90.20;52.60;;;;;;;-0.67;88.42;98094.70;87015;1299;22530;-78
2022/12/15 08:44:40;;;;;;;92.70;50.30;;;;;;;-0.68;88.41;98091.96;87208;1305;22451;-78
2022/12/15 08:46:42;;;;;;;81.20;46.50;;;;;;;-0.66;88.49;98097.96;86836;1285;99222;-75
2022/12/15 08:48:45;;;;;;;93.10;49.70;;;;;;;-0.66;88.37;98102.11;86924;1290;22598;-78
2022/12/15 08:50:46;;;;;;;90.40;49.50;;;;;;;-0.66;88.45;98100.20;87352;1283;23672;-76
2022/12/15 08:52:48;;;;;;;88.10;49.00;;;;;;;-0.66;88.49;98108.66;87056;1299;98101;-77
2022/12/15 08:54:50;;;;;;;83.90;48.00;;;;;;;-0.66;88.30;98116.76;87144;1307;24284;-78
2022/12/15 08:56:52;;;;;;;87.90;49.50;;;;;;;-0.65;88.49;98118.81;87032;1299;22709;-77
2022/12/15 08:58:57;;;;;;;88.10;50.40;;;;;;;-0.63;88.49;98118.96;87141;1299;98125;-78
2022/12/15 09:01:05;;;;;;;97.50;54.00;;;;;;;-0.63;88.49;98108.08;87168;1290;24779;-78
2022/12/15 09:03:07;;;;;;;95.10;53.40;;;;;;;-0.62;88.52;98111.16;87321;1295;24002;-78
2022/12/15 09:05:09;;;;;;;107.20;55.20;;;;;;;-0.62;88.47;98110.98;87064;1315;98219;-78
2022/12/15 09:07:12;;;;;;;97.60;58.10;;;;;;;-0.62;88.43;98112.20;87204;1299;25227;-79
2022/12/15 09:09:14;;;;;;;110.30;55.80;;;;;;;-0.64;88.50;98114.84;87111;1309;22515;-78
2022/12/15 09:11:16;;;;;;;102.90;56.00;;;;;;;-0.65;88.45;98115.54;86808;1299;99788;-78
2022/12/15 09:13:18;;;;;;;96.40;56.00;;;;;;;-0.64;88.49;98110.84;87001;1291;22677;-77
2022/12/15 09:15:21;;;;;;;105.50;52.90;;;;;;;-0.65;88.41;98111.91;86915;1299;22577;-78
2022/12/15 09:17:22;;;;;;;95.60;51.20;;;;;;;-0.66;88.34;98113.14;86762;1302;98290;-77
2022/12/15 09:19:25;;;;;;;99.30;53.00;;;;;;;-0.65;88.39;98113.46;87153;1292;24274;-76
2022/12/15 09:21:29;;;;;;;93.60;50.30;;;;;;;-0.64;88.35;98112.39;86754;1300;22569;-77
2022/12/15 09:23:32;;;;;;;99.30;55.10;;;;;;;-0.62;88.45;98112.02;86968;1283;98513;-77
2022/12/15 09:25:35;;;;;;;87.50;49.30;;;;;;;-0.60;88.53;98114.75;87012;1290;22819;-77
2022/12/15 09:27:37;;;;;;;96.00;53.10;;;;;;;-0.60;88.40;98117.70;87053;1288;22526;-76
2022/12/15 09:29:39;;;;;;;97.00;53.20;;;;;;;-0.61;88.35;98119.26;86846;1283;22520;-77
2022/12/15 09:31:43;;;;;;;92.40;50.10;;;;;;;-0.62;88.34;98115.83;87048;1293;22535;-77
2022/12/15 09:33:45;;;;;;;87.20;48.30;;;;;;;-0.64;88.35;98122.06;86649;1300;98293;-77
2022/12/15 09:35:50;;;;;;;90.50;49.60;;;;;;;-0.63;88.34;98118.59;86915;1288;22465;-77
2022/12/15 09:37:52;;;;;;;91.10;50.00;;;;;;;-0.62;88.32;98120.84;86849;1290;22539;-77
2022/12/15 09:39:54;;;;;;;86.10;47.60;;;;;;;-0.62;88.26;98121.88;86710;1292;98241;-77
2022/12/15 09:41:59;;;;;;;81.90;47.10;;;;;;;-0.63;88.65;98121.20;86946;1288;22542;-78
2022/12/15 09:44:18;;;;;;;80.10;46.20;;;;;;;-0.64;88.32;98124.65;86746;1285;22449;-75
2022/12/15 09:46:33;;;;;;;83.60;45.90;;;;;;;-0.60;88.42;98132.36;86784;1290;98177;-76
2022/12/15 09:48:40;;;;;;;53.50;31.50;;;;;;;-0.59;88.47;98129.05;86767;1296;22449;-77
2022/12/15 09:50:46;;;;;;;95.20;53.20;;;;;;;-0.58;88.37;98129.56;86786;1299;22589;-76
2022/12/15 09:52:52;;;;;;;94.50;53.00;;;;;;;-0.57;88.47;98128.52;86599;1283;98335;-77
2022/12/15 09:54:55;;;;;;;97.40;55.90;;;;;;;-0.56;88.38;98131.25;86774;1296;22919;-76
2022/12/15 09:57:01;;;;;;;101.70;57.30;;;;;;;-0.56;88.46;98131.41;86552;1286;24790;-77
2022/12/15 09:59:29;;;;;;;105.40;56.60;;;;;;;-0.55;88.48;98129.86;86444;1290;179626;-76
2022/12/15 10:01:44;;;;;;;109.40;59.30;;;;;;;-0.55;88.43;98124.69;86819;1296;22588;-76
2022/12/15 10:04:25;;;;;;;98.30;54.60;;;;;;;-0.56;88.50;98125.54;86542;1299;100126;-77
2022/12/15 10:06:37;;;;;;;107.30;55.40;;;;;;;-0.55;88.61;98127.44;86501;1286;22588;-77
2022/12/15 10:08:48;;;;;;;95.50;54.00;;;;;;;-0.54;88.42;98134.16;86513;1292;24380;-77
2022/12/15 10:10:56;;;;;;;65.00;39.80;;;;;;;-0.54;88.43;98139.50;86402;1293;99304;-78
2022/12/15 10:13:09;;;;;;;95.40;54.90;;;;;;;-0.53;88.55;98138.45;86392;1295;22506;-76
2022/12/15 10:15:25;;;;;;;87.30;49.50;;;;;;;-0.50;88.40;98145.65;86186;1304;23674;-77
2022/12/15 10:17:44;;;;;;;91.00;50.20;;;;;;;-0.50;88.46;98140.82;86335;1296;99068;-76
2022/12/15 10:19:52;;;;;;;93.00;49.20;;;;;;;-0.49;88.49;98134.75;86367;1292;22467;-77
2022/12/15 10:21:55;;;;;;;98.50;53.20;;;;;;;-0.49;88.60;98132.70;86435;1287;100798;-76
2022/12/15 10:24:11;;;;;;;73.90;45.90;;;;;;;-0.48;88.51;98137.68;86189;1297;22837;-75
2022/12/15 10:26:30;;;;;;;94.40;44.60;;;;;;;-0.47;88.49;98144.22;86484;1300;22496;-76
2022/12/15 10:28:54;;;;;;;83.20;46.70;;;;;;;-0.46;88.66;98140.76;86355;1297;98053;-76
2022/12/15 10:30:59;;;;;;;85.60;47.80;;;;;;;-0.45;88.60;98140.91;86305;1300;25359;-77
2022/12/15 10:33:15;;;;;;;85.80;47.40;;;;;;;-0.45;88.55;98146.77;86294;1302;25241;-76
2022/12/15 10:35:28;;;;;;;85.80;44.80;;;;;;;-0.45;88.62;98152.30;86268;1286;99151;-76
2022/12/15 10:37:30;;;;;;;86.80;49.80;;;;;;;-0.45;88.56;98160.05;86186;1302;24277;-76
2022/12/15 10:39:43;;;;;;;83.00;48.80;;;;;;;-0.43;88.59;98160.90;86210;1303;22825;-76
2022/12/15 10:43:56;;;;;;;81.10;45.20;;;;;;;-0.43;88.60;98152.77;86967;1288;92932;-73
2022/12/15 10:46:18;;;;;;;91.10;48.00;;;;;;;-0.43;88.61;98147.25;86069;1287;99740;-77
2022/12/15 10:48:20;;;;;;;80.80;44.40;;;;;;;-0.43;88.74;98146.04;86744;1272;95636;-75
2022/12/15 10:50:24;;;;;;;78.30;47.50;;;;;;;-0.44;88.66;98143.13;86702;1313;22449;-75
2022/12/15 10:52:36;;;;;;;100.80;52.90;;;;;;;-0.44;88.54;98136.75;86629;1311;98295;-75
2022/12/15 10:54:46;;;;;;;81.60;45.60;;;;;;;-0.44;88.74;98125.71;86659;1296;22824;-76
2022/12/15 10:56:51;;;;;;;89.60;48.30;;;;;;;-0.44;88.57;98121.89;86833;1293;23057;-75
2022/12/15 10:58:57;;;;;;;82.80;51.50;;;;;;;-0.43;88.59;98132.08;86846;1290;98894;-75
2022/12/15 11:01:13;;;;;;;101.80;55.90;;;;;;;-0.45;88.68;98127.95;86763;1290;22522;-76
2022/12/15 11:03:24;;;;;;;70.20;39.40;;;;;;;-0.42;88.62;98138.27;86888;1288;34862;-74
2022/12/15 11:05:26;;;;;;;;;;;;;;;-0.41;88.68;98149.30;86659;1313;98103;-75
2022/12/15 11:07:42;;;;;;;83.80;48.30;;;;;;;-0.41;88.95;98160.69;86658;1286;22561;-75
2022/12/15 11:09:47;;;;;;;92.10;50.40;;;;;;;-0.42;88.85;98174.15;86694;1282;22608;-77
2022/12/15 11:14:34;;;;;;;103.20;55.40;;;;;;;-0.41;88.60;98190.89;86719;1296;25522;-74
2022/12/15 11:16:44;;;;;;;94.00;53.10;;;;;;;-0.41;88.64;98193.64;86739;1295;99394;-75
2022/12/15 11:19:01;;;;;;;73.00;42.90;;;;;;;-0.41;88.65;98188.12;86888;1296;26328;-75
2022/12/15 11:21:10;;;;;;;91.50;51.30;;;;;;;-0.40;88.76;98187.40;86643;1312;22530;-74
2022/12/15 11:23:27;;;;;;;89.40;48.50;;;;;;;-0.40;88.55;98190.52;86460;1294;99343;-75
2022/12/15 11:25:44;;;;;;;101.20;53.20;;;;;;;-0.41;88.72;98193.11;86686;1304;23461;-74
2022/12/15 11:27:50;;;;;;;106.00;51.30;;;;;;;-0.40;88.61;98192.23;86420;1291;99766;-74
2022/12/15 11:30:08;;;;;;;90.40;49.40;;;;;;;-0.39;88.87;98194.81;86625;1310;24302;-77
2022/12/15 11:32:12;;;;;;;93.60;51.30;;;;;;;-0.39;88.78;98199.65;86878;1288;22510;-74
2022/12/15 11:34:17;;;;;;;100.20;50.90;;;;;;;-0.40;88.54;98196.90;86718;1309;98143;-74
2022/12/15 11:36:24;;;;;;;89.30;48.80;;;;;;;-0.40;88.67;98194.99;86691;1296;25229;-75
2022/12/15 11:38:57;;;;;;;101.80;52.70;;;;;;;-0.40;88.84;98191.20;86713;1286;22842;-76
2022/12/15 11:41:15;;;;;;;90.40;44.90;;;;;;;-0.39;88.63;98192.39;86496;1288;98599;-75
2022/12/15 11:43:42;;;;;;;92.90;50.00;;;;;;;-0.38;88.58;98188.77;86579;1295;22489;-75
2022/12/15 11:46:05;;;;;;;77.20;43.80;;;;;;;-0.38;88.60;98194.29;86393;1300;23060;-74
2022/12/15 11:48:20;;;;;;;85.10;46.90;;;;;;;-0.38;88.75;98188.25;86470;1310;25425;-76
2022/12/15 11:50:52;;;;;;;48.20;26.80;;;;;;;-0.37;88.64;98187.19;86526;1296;25001;-76
2022/12/15 11:53:07;;;;;;;64.90;32.50;;;;;;;-0.37;88.76;98188.75;86317;1297;99189;-76
2022/12/15 11:55:24;;;;;;;91.10;50.00;;;;;;;-0.36;88.83;98195.11;86838;1296;24373;-76
2022/12/15 11:58:12;;;;;;;103.20;51.30;;;;;;;-0.35;88.65;98201.98;86815;1294;22503;-74
2022/12/15 12:00:18;;;;;;;86.40;47.20;;;;;;;-0.36;88.81;98189.42;86790;1295;22539;-76
2022/12/15 12:02:38;;;;;;;62.80;35.80;;;;;;;-0.33;88.86;98192.48;87030;1297;22503;-76